Time;durP1;ratioP1;P1;durP2;ratioP2;P2;SDS_P1;SDS_P2;PMS_P1;PMS_P2;Temp;Humidity;BMP_temperature;BMP_pressure;BME280_temperature;BME280_humidity;BME280_pressure;Samples;Min_cycle;Max_cycle;Signal;HPM_P1;HPM_P2
2023/05/20 00:00:07;;;;;;;3.90;2.17;;;;;;;9.02;100.00;92670.50;4950400;29;20042;-75
2023/05/20 00:02:32;;;;;;;3.55;2.08;;;;;;;9.04;100.00;92673.63;4953103;29;20034;-75
2023/05/20 00:04:58;;;;;;;3.38;1.90;;;;;;;9.01;100.00;92663.75;4934629;29;20470;-75
2023/05/20 00:07:23;;;;;;;3.40;1.90;;;;;;;9.02;100.00;92663.47;4952775;29;20035;-75
2023/05/20 00:09:49;;;;;;;3.20;1.90;;;;;;;8.99;100.00;92663.25;4952719;29;20047;-76
2023/05/20 00:12:15;;;;;;;5.10;1.95;;;;;;;8.98;100.00;92664.28;4952820;29;20549;-75
2023/05/20 00:14:40;;;;;;;4.20;1.92;;;;;;;8.96;100.00;92649.66;4952075;28;20070;-75
2023/05/20 00:17:06;;;;;;;4.70;2.15;;;;;;;8.99;100.00;92658.00;4952136;29;20059;-75
2023/05/20 00:19:31;;;;;;;3.92;2.00;;;;;;;8.98;100.00;92662.44;4952666;29;20043;-75
2023/05/20 00:21:57;;;;;;;4.15;2.40;;;;;;;8.96;100.00;92652.28;4952817;29;20060;-75
2023/05/20 00:24:23;;;;;;;3.42;2.20;;;;;;;8.95;100.00;92657.75;4934912;29;20077;-76
2023/05/20 00:26:49;;;;;;;6.78;2.25;;;;;;;8.98;100.00;92652.00;4935481;29;20137;-75
2023/05/20 00:29:15;;;;;;;3.55;1.80;;;;;;;8.98;100.00;92653.81;4952341;29;20043;-75
2023/05/20 00:31:40;;;;;;;3.10;1.77;;;;;;;8.98;100.00;92656.44;4951369;29;20129;-75
2023/05/20 00:34:07;;;;;;;6.15;1.80;;;;;;;8.94;100.00;92649.16;4948514;28;20047;-75
2023/05/20 00:36:34;;;;;;;3.60;1.35;;;;;;;8.91;100.00;92649.69;4951972;29;20038;-75
2023/05/20 00:38:59;;;;;;;1.77;1.30;;;;;;;8.90;100.00;92647.38;4950627;29;20397;-75
2023/05/20 00:41:25;;;;;;;2.88;1.50;;;;;;;8.89;100.00;92646.59;4948297;29;20031;-74
2023/05/20 00:43:55;;;;;;;2.80;1.50;;;;;;;8.89;100.00;92651.81;4951739;28;20039;-74
2023/05/20 00:46:22;;;;;;;2.90;1.60;;;;;;;8.87;100.00;92651.31;4948647;29;20413;-74
2023/05/20 00:48:49;;;;;;;2.88;1.50;;;;;;;8.86;100.00;92647.13;4953600;28;20393;-74
2023/05/20 00:51:16;;;;;;;5.20;1.77;;;;;;;8.87;100.00;92647.88;4955277;29;20605;-74
2023/05/20 00:53:42;;;;;;;6.25;1.65;;;;;;;8.87;100.00;92645.28;4951935;28;20059;-74
2023/05/20 00:56:08;;;;;;;4.20;1.90;;;;;;;8.88;100.00;92639.03;4955382;29;20043;-74
2023/05/20 00:58:36;;;;;;;5.10;2.08;;;;;;;8.90;100.00;92635.09;4954477;29;20074;-74
2023/05/20 01:01:04;;;;;;;3.72;2.30;;;;;;;8.91;100.00;92631.41;4952904;29;20433;-74
2023/05/20 01:03:30;;;;;;;5.57;2.22;;;;;;;8.90;100.00;92631.69;4955933;28;20067;-74
2023/05/20 01:05:55;;;;;;;4.40;2.50;;;;;;;8.91;100.00;92625.41;4937901;29;20138;-74
2023/05/20 01:08:23;;;;;;;4.93;2.78;;;;;;;8.93;100.00;92624.09;4922616;29;20054;-74
2023/05/20 01:11:02;;;;;;;4.32;2.45;;;;;;;8.94;100.00;92627.50;4951335;29;20047;-74
2023/05/20 01:13:51;;;;;;;4.93;2.75;;;;;;;8.92;100.00;92627.00;4954290;28;20067;-74
2023/05/20 01:16:17;;;;;;;7.78;3.00;;;;;;;8.92;100.00;92621.75;4934268;29;20525;-74
2023/05/20 01:18:47;;;;;;;8.05;3.10;;;;;;;8.88;100.00;92621.53;4955592;29;20071;-74
2023/05/20 01:21:14;;;;;;;6.05;2.80;;;;;;;8.88;100.00;92626.75;4951902;29;20334;-74
2023/05/20 01:23:41;;;;;;;7.45;2.78;;;;;;;8.94;100.00;92630.88;4953865;28;20114;-74
2023/05/20 01:26:12;;;;;;;5.82;2.95;;;;;;;8.90;100.00;92626.47;4951694;29;20063;-74
2023/05/20 01:28:40;;;;;;;6.60;2.92;;;;;;;8.85;100.00;92619.47;4937760;29;20126;-74
2023/05/20 01:31:11;;;;;;;795.63;17.83;;;;;;;8.80;100.00;92624.69;4954198;29;20508;-74
2023/05/20 01:33:40;;;;;;;852.53;20.02;;;;;;;8.71;100.00;92623.72;4938498;29;20054;-74
2023/05/20 01:36:08;;;;;;;986.45;23.17;;;;;;;8.69;100.00;92628.41;4937867;29;20067;-74
2023/05/20 01:38:36;;;;;;;162.35;5.43;;;;;;;8.67;100.00;92622.69;4953547;29;20150;-74
2023/05/20 01:41:04;;;;;;;18.80;3.20;;;;;;;8.68;100.00;92617.22;4938253;29;20038;-74
2023/05/20 01:43:32;;;;;;;4.22;2.72;;;;;;;8.68;100.00;92616.44;4955163;28;20118;-74
2023/05/20 01:45:57;;;;;;;4.45;2.33;;;;;;;8.72;100.00;92612.25;4955174;29;20122;-74
2023/05/20 01:48:23;;;;;;;3.78;2.25;;;;;;;8.73;100.00;92608.56;4953809;29;20514;-74
2023/05/20 01:50:48;;;;;;;4.25;2.35;;;;;;;8.75;100.00;92606.47;4951867;29;20027;-74
2023/05/20 01:53:15;;;;;;;3.92;2.05;;;;;;;8.75;100.00;92614.28;4952040;28;20082;-74
2023/05/20 01:55:41;;;;;;;3.83;2.30;;;;;;;8.73;100.00;92617.16;4934268;29;20798;-74
2023/05/20 01:58:06;;;;;;;4.35;2.10;;;;;;;8.74;100.00;92607.53;4937523;29;20038;-74
2023/05/20 02:00:33;;;;;;;3.63;2.28;;;;;;;8.72;100.00;92604.41;4936275;29;20063;-74
2023/05/20 02:02:59;;;;;;;4.53;1.77;;;;;;;8.74;100.00;92602.31;4953393;28;20036;-74
2023/05/20 02:05:25;;;;;;;3.45;1.92;;;;;;;8.74;100.00;92597.88;4952490;29;20027;-74
2023/05/20 02:07:50;;;;;;;3.72;1.55;;;;;;;8.74;100.00;92600.47;4954649;29;20041;-74
2023/05/20 02:10:16;;;;;;;3.50;1.58;;;;;;;8.75;100.00;92598.63;4955113;29;20037;-74
2023/05/20 02:12:42;;;;;;;2.70;1.58;;;;;;;8.74;100.00;92591.88;4953292;29;20057;-74
2023/05/20 02:15:08;;;;;;;2.15;1.30;;;;;;;8.74;100.00;92576.22;4933456;29;20028;-74
2023/05/20 02:17:34;;;;;;;4.70;1.63;;;;;;;8.74;100.00;92576.22;4953488;29;20126;-74
2023/05/20 02:20:00;;;;;;;2.95;1.65;;;;;;;8.77;100.00;92567.81;4936821;29;20114;-74
2023/05/20 02:22:25;;;;;;;4.13;2.03;;;;;;;8.77;100.00;92565.22;4952558;29;20091;-74
2023/05/20 02:24:51;;;;;;;3.30;1.83;;;;;;;8.80;100.00;92561.28;4935387;29;20034;-74
2023/05/20 02:27:17;;;;;;;3.70;2.38;;;;;;;8.80;100.00;92553.44;4936953;29;20050;-74
2023/05/20 02:29:43;;;;;;;4.85;2.55;;;;;;;8.80;100.00;92559.44;4954170;29;20039;-74
2023/05/20 02:32:11;;;;;;;4.50;2.55;;;;;;;8.77;100.00;92552.16;4937418;29;20066;-74
2023/05/20 02:34:36;;;;;;;2.90;1.60;;;;;;;8.80;100.00;92556.81;4919078;29;20035;-74
2023/05/20 02:37:02;;;;;;;3.67;1.65;;;;;;;8.76;100.00;92558.44;4952358;29;20039;-74
2023/05/20 02:39:28;;;;;;;2.05;1.30;;;;;;;8.73;100.00;92545.94;4952658;29;20047;-74
2023/05/20 02:41:53;;;;;;;2.58;1.60;;;;;;;8.71;100.00;92546.22;4954316;29;20102;-74
2023/05/20 02:44:20;;;;;;;3.63;1.90;;;;;;;8.68;100.00;92541.53;4937053;29;20446;-74
2023/05/20 02:46:47;;;;;;;3.17;1.77;;;;;;;8.70;100.00;92549.88;4951800;29;20406;-74
2023/05/20 02:49:12;;;;;;;3.05;1.73;;;;;;;8.76;100.00;92545.41;4952792;29;20046;-74
2023/05/20 02:51:39;;;;;;;7.60;1.80;;;;;;;8.71;100.00;92542.81;4953843;29;20050;-74
2023/05/20 02:54:05;;;;;;;3.20;2.00;;;;;;;8.70;100.00;92541.25;4952299;28;20040;-74
2023/05/20 02:56:31;;;;;;;4.15;2.10;;;;;;;8.70;100.00;92543.88;4933972;29;20039;-74
2023/05/20 02:58:56;;;;;;;2.72;1.65;;;;;;;8.70;100.00;92546.47;4920488;29;20062;-74
2023/05/20 03:01:22;;;;;;;3.20;1.85;;;;;;;8.69;100.00;92548.31;4952543;29;20039;-74
2023/05/20 03:03:47;;;;;;;2.65;1.67;;;;;;;8.69;100.00;92544.91;4951472;28;20031;-74
2023/05/20 03:06:13;;;;;;;3.08;1.63;;;;;;;8.72;100.00;92541.78;4952387;29;20105;-74
2023/05/20 03:08:41;;;;;;;2.90;1.60;;;;;;;8.72;100.00;92536.56;4952836;29;20540;-74
2023/05/20 03:11:07;;;;;;;2.88;1.38;;;;;;;8.73;100.00;92540.72;4952274;28;20066;-74
2023/05/20 03:13:33;;;;;;;3.65;1.60;;;;;;;8.74;100.00;92542.28;4950436;28;20134;-74
2023/05/20 03:16:00;;;;;;;2.70;1.70;;;;;;;8.74;100.00;92539.66;4953754;29;20052;-74
2023/05/20 03:18:26;;;;;;;5.03;1.70;;;;;;;8.72;100.00;92539.16;4951562;29;20050;-74
2023/05/20 03:20:52;;;;;;;3.08;1.40;;;;;;;8.71;100.00;92535.78;4935866;29;20089;-74
2023/05/20 03:23:18;;;;;;;2.92;1.80;;;;;;;8.70;100.00;92533.44;4950211;28;20038;-74
2023/05/20 03:25:45;;;;;;;3.25;1.90;;;;;;;8.68;100.00;92531.09;4951742;29;20408;-74
2023/05/20 03:28:10;;;;;;;7.20;1.90;;;;;;;8.70;100.00;92528.22;4952603;29;20118;-74
2023/05/20 03:30:36;;;;;;;4.78;1.90;;;;;;;8.70;100.00;92528.97;4936125;29;20374;-74
2023/05/20 03:33:04;;;;;;;4.05;2.05;;;;;;;8.69;100.00;92526.63;4934808;28;20098;-74
2023/05/20 03:35:30;;;;;;;2.92;1.70;;;;;;;8.68;100.00;92515.44;4951573;29;20122;-74
2023/05/20 03:37:57;;;;;;;4.75;1.80;;;;;;;8.67;100.00;92519.09;4935564;29;20117;-74
2023/05/20 03:40:24;;;;;;;4.32;1.80;;;;;;;8.70;100.00;92523.00;4933730;29;20409;-74
2023/05/20 03:42:50;;;;;;;2.85;1.70;;;;;;;8.67;100.00;92518.31;4950917;28;20094;-74
2023/05/20 03:45:18;;;;;;;3.30;1.85;;;;;;;8.63;100.00;92518.09;4941279;29;20119;-74
2023/05/20 03:47:59;;;;;;;2.85;1.70;;;;;;;8.64;100.00;92518.84;4918784;29;20039;-74
2023/05/20 03:50:25;;;;;;;2.47;1.65;;;;;;;8.64;100.00;92519.63;4950164;29;20058;-75
2023/05/20 03:52:51;;;;;;;2.88;1.70;;;;;;;8.66;100.00;92514.16;4950696;28;20421;-74
2023/05/20 03:55:19;;;;;;;4.38;1.30;;;;;;;8.66;100.00;92514.16;4920612;29;20039;-74
2023/05/20 03:57:45;;;;;;;2.00;1.10;;;;;;;8.68;100.00;92510.22;4951793;29;20493;-74
2023/05/20 04:00:13;;;;;;;2.20;1.30;;;;;;;8.87;100.00;92518.16;4935277;29;20046;-74
2023/05/20 04:02:44;;;;;;;4.13;1.40;;;;;;;8.72;100.00;92513.06;4951241;29;20046;-74
2023/05/20 04:05:14;;;;;;;2.63;1.40;;;;;;;8.68;100.00;92519.88;4951379;29;20094;-74
2023/05/20 04:07:40;;;;;;;2.40;1.40;;;;;;;8.66;100.00;92521.97;4950996;29;20447;-74
2023/05/20 04:10:07;;;;;;;2.63;1.40;;;;;;;8.64;100.00;92524.06;4950095;29;20493;-74
2023/05/20 04:12:34;;;;;;;2.53;1.55;;;;;;;8.61;100.00;92517.56;4951679;29;20485;-74
2023/05/20 04:15:01;;;;;;;2.13;1.40;;;;;;;8.60;100.00;92521.25;4935621;29;20047;-74
2023/05/20 04:17:30;;;;;;;1.83;1.20;;;;;;;8.59;100.00;92514.47;4952362;29;20053;-74
2023/05/20 04:19:58;;;;;;;2.00;1.40;;;;;;;8.62;100.00;92515.75;4950109;29;20031;-74
2023/05/20 04:22:25;;;;;;;3.97;1.20;;;;;;;8.60;100.00;92510.00;4936377;29;20038;-74
2023/05/20 04:24:50;;;;;;;1.88;1.20;;;;;;;8.60;100.00;92518.63;4950718;28;20125;-74
2023/05/20 04:27:16;;;;;;;3.78;1.17;;;;;;;8.63;100.00;92525.13;4951166;29;20039;-74
2023/05/20 04:29:44;;;;;;;1.35;1.10;;;;;;;8.65;100.00;92515.97;4942548;29;20097;-74
2023/05/20 04:32:20;;;;;;;1.27;1.10;;;;;;;8.66;100.00;92517.53;4934986;29;20541;-74
2023/05/20 04:34:47;;;;;;;2.17;1.23;;;;;;;8.70;100.00;92517.78;4935006;29;20295;-74
2023/05/20 04:37:13;;;;;;;1.58;1.17;;;;;;;8.73;100.00;92515.38;4935364;29;20043;-74
2023/05/20 04:39:42;;;;;;;1.92;1.25;;;;;;;8.75;100.00;92515.88;4934809;29;20608;-74
2023/05/20 04:42:09;;;;;;;3.45;1.20;;;;;;;8.78;100.00;92517.19;4950175;29;20525;-74
2023/05/20 04:44:35;;;;;;;1.95;1.30;;;;;;;8.79;100.00;92515.34;4951254;28;20082;-74
2023/05/20 04:47:00;;;;;;;3.85;1.40;;;;;;;8.80;100.00;92517.69;4932837;29;20090;-74
2023/05/20 04:49:27;;;;;;;3.28;1.10;;;;;;;8.84;100.00;92520.53;4934596;29;20035;-74
2023/05/20 04:51:54;;;;;;;3.53;1.27;;;;;;;8.83;100.00;92511.94;4950731;29;20125;-74
2023/05/20 04:54:20;;;;;;;8.40;1.98;;;;;;;8.85;100.00;92520.25;4950649;28;20055;-74
2023/05/20 04:56:46;;;;;;;2.30;1.30;;;;;;;8.85;100.00;92515.03;4934824;29;20043;-74
2023/05/20 04:59:12;;;;;;;2.08;1.20;;;;;;;8.87;100.00;92512.13;4949791;29;20086;-74
2023/05/20 05:01:39;;;;;;;2.63;1.40;;;;;;;8.87;100.00;92512.13;4929680;29;20037;-74
2023/05/20 05:04:05;;;;;;;4.68;1.20;;;;;;;8.90;100.00;92512.38;4947315;28;20083;-74
2023/05/20 05:06:31;;;;;;;2.70;1.27;;;;;;;8.93;100.00;92511.06;4949071;29;20477;-74
2023/05/20 05:09:00;;;;;;;2.20;1.30;;;;;;;8.93;100.00;92511.81;4949605;29;20047;-74
2023/05/20 05:11:26;;;;;;;1.65;1.20;;;;;;;8.94;100.00;92512.63;4928988;29;20050;-76
2023/05/20 05:13:52;;;;;;;1.25;0.80;;;;;;;8.94;100.00;92508.19;4934219;29;20043;-75
2023/05/20 05:16:21;;;;;;;1.20;0.90;;;;;;;8.99;100.00;92515.19;4935825;29;20684;-77
2023/05/20 05:18:46;;;;;;;2.03;1.10;;;;;;;9.02;100.00;92508.63;4936378;29;20087;-77
2023/05/20 05:21:12;;;;;;;2.83;1.02;;;;;;;9.04;100.00;92515.13;4933063;29;20046;-76
2023/05/20 05:23:41;;;;;;;2.08;1.10;;;;;;;9.07;100.00;92517.19;4931312;29;20043;-77
2023/05/20 05:26:07;;;;;;;1.67;1.00;;;;;;;9.09;100.00;92504.63;4931301;29;20050;-77
2023/05/20 05:28:33;;;;;;;1.45;1.00;;;;;;;9.10;100.00;92505.44;4931456;29;20401;-77
2023/05/20 05:30:58;;;;;;;2.92;0.90;;;;;;;9.10;100.00;92502.81;4948725;29;20062;-77
2023/05/20 05:33:25;;;;;;;3.28;1.02;;;;;;;9.11;100.00;92497.28;4930106;29;20417;-77
2023/05/20 05:35:51;;;;;;;1.00;0.90;;;;;;;9.14;100.00;92495.97;4950001;28;20032;-77
2023/05/20 05:38:17;;;;;;;2.92;1.00;;;;;;;9.18;100.00;92486.53;4955733;29;20039;-77
2023/05/20 05:40:42;;;;;;;1.00;0.90;;;;;;;9.23;100.00;92489.09;4955221;29;20416;-77
2023/05/20 05:43:08;;;;;;;3.10;1.10;;;;;;;9.24;100.00;92490.66;4955172;28;20039;-77
2023/05/20 05:45:34;;;;;;;3.17;1.10;;;;;;;9.27;100.00;92490.09;4937529;29;20039;-77
2023/05/20 05:48:00;;;;;;;2.40;1.17;;;;;;;9.30;100.00;92484.31;4968048;28;20164;-77
2023/05/20 05:50:25;;;;;;;1.02;0.90;;;;;;;9.34;100.00;92480.09;4941578;29;20035;-77
2023/05/20 05:52:52;;;;;;;1.60;1.20;;;;;;;9.35;100.00;92481.66;4939797;28;20075;-77
2023/05/20 05:55:18;;;;;;;1.88;1.20;;;;;;;9.36;100.00;92483.19;4955421;29;20300;-76
2023/05/20 05:57:44;;;;;;;4.22;1.20;;;;;;;9.38;100.00;92486.31;4955443;29;20390;-77
2023/05/20 06:00:13;;;;;;;2.53;1.20;;;;;;;9.38;100.00;92481.09;4940827;29;20478;-77
2023/05/20 06:02:45;;;;;;;1.17;1.00;;;;;;;9.42;100.00;92475.31;4941301;29;20603;-77
2023/05/20 06:05:15;;;;;;;1.13;0.82;;;;;;;9.46;100.00;92471.09;4933447;29;20425;-77
2023/05/20 06:07:41;;;;;;;2.40;1.10;;;;;;;9.46;100.00;92471.88;4952856;29;20039;-77
2023/05/20 06:10:07;;;;;;;1.42;0.90;;;;;;;9.49;100.00;92480.97;4951916;29;20047;-77
2023/05/20 06:12:33;;;;;;;1.95;0.80;;;;;;;9.49;100.00;92473.91;4956266;29;20046;-77
2023/05/20 06:14:58;;;;;;;2.25;1.13;;;;;;;9.54;100.00;92478.31;4955988;28;20027;-77
2023/05/20 06:17:24;;;;;;;1.13;1.00;;;;;;;9.57;100.00;92475.16;4954228;29;20043;-77
2023/05/20 06:19:50;;;;;;;1.42;1.10;;;;;;;9.64;100.00;92465.13;4937998;29;20525;-78
2023/05/20 06:22:16;;;;;;;0.70;0.70;;;;;;;9.72;100.00;92469.72;4923281;29;20074;-77
2023/05/20 06:24:41;;;;;;;1.05;0.98;;;;;;;9.79;100.00;92462.34;4937298;29;20051;-77
2023/05/20 06:27:07;;;;;;;1.90;0.95;;;;;;;9.88;100.00;92462.44;4956306;29;20039;-77
2023/05/20 06:29:32;;;;;;;1.58;1.02;;;;;;;9.91;100.00;92466.38;4954607;29;20086;-77
2023/05/20 06:31:58;;;;;;;0.90;0.88;;;;;;;9.96;100.00;92463.69;4939245;29;20038;-77
2023/05/20 06:34:24;;;;;;;1.98;0.85;;;;;;;9.98;100.00;92451.09;4938030;29;20058;-76
2023/05/20 06:36:50;;;;;;;0.85;0.85;;;;;;;9.99;100.00;92450.03;4955528;28;20509;-77
2023/05/20 06:39:16;;;;;;;1.23;1.00;;;;;;;10.00;100.00;92456.81;4955140;29;20288;-77
2023/05/20 06:41:43;;;;;;;3.10;1.00;;;;;;;10.04;100.00;92459.63;4939344;29;20126;-77
2023/05/20 06:44:09;;;;;;;1.58;1.13;;;;;;;10.06;100.00;92466.13;4953111;28;20058;-77
2023/05/20 06:46:53;;;;;;;51.45;3.53;;;;;;;9.91;100.00;92471.59;4936589;29;20061;-78
2023/05/20 06:49:19;;;;;;;1.70;1.20;;;;;;;9.87;100.00;92470.59;4938455;29;20508;-77
2023/05/20 06:51:45;;;;;;;2.17;1.20;;;;;;;9.88;100.00;92461.69;4956936;28;20412;-76
2023/05/20 06:54:10;;;;;;;3.17;1.40;;;;;;;9.87;100.00;92470.59;4950867;28;20379;-77
2023/05/20 06:56:36;;;;;;;2.70;1.20;;;;;;;9.91;100.00;92471.59;4952806;28;20034;-78
2023/05/20 06:59:02;;;;;;;3.22;1.30;;;;;;;9.93;100.00;92469.44;4901581;28;20069;-77
2023/05/20 07:01:28;;;;;;;1.40;1.08;;;;;;;9.92;100.00;92473.91;4952925;28;20425;-76
2023/05/20 07:03:55;;;;;;;2.75;1.20;;;;;;;9.98;100.00;92478.03;4952254;28;20035;-77
2023/05/20 07:06:20;;;;;;;2.35;1.13;;;;;;;9.90;100.00;92476.03;4948375;28;20032;-78
2023/05/20 07:08:46;;;;;;;2.75;1.27;;;;;;;9.92;100.00;92486.97;4951878;28;20046;-78
2023/05/20 07:11:12;;;;;;;4.32;1.23;;;;;;;9.98;100.00;92490.31;4941335;28;20047;-77
2023/05/20 07:13:38;;;;;;;1.90;1.20;;;;;;;10.01;100.00;92484.53;4939917;28;20031;-77
2023/05/20 07:16:04;;;;;;;3.28;1.27;;;;;;;10.05;100.00;92482.91;4956106;28;20032;-79
2023/05/20 07:18:30;;;;;;;5.22;1.60;;;;;;;10.07;100.00;92475.56;4954707;28;20523;-78
2023/05/20 07:20:56;;;;;;;2.10;1.30;;;;;;;10.12;100.00;92477.31;4955483;28;20058;-78
2023/05/20 07:23:41;;;;;;;2.80;1.13;;;;;;;10.16;100.00;92473.09;4955246;28;20114;-78
2023/05/20 07:26:06;;;;;;;2.38;1.20;;;;;;;10.18;100.00;92476.97;4939372;29;20486;-77
2023/05/20 07:28:34;;;;;;;5.05;1.10;;;;;;;10.19;100.00;92473.28;4919425;29;20027;-77
2023/05/20 07:31:00;;;;;;;2.60;1.20;;;;;;;10.18;100.00;92471.75;4952297;28;20397;-77
2023/05/20 07:33:28;;;;;;;1.63;1.10;;;;;;;10.23;100.00;92467.50;4945877;28;20030;-78
2023/05/20 07:35:54;;;;;;;3.72;1.10;;;;;;;10.23;100.00;92470.13;4945164;28;20070;-78
2023/05/20 07:38:21;;;;;;;1.55;1.00;;;;;;;10.19;100.00;92472.50;4958492;28;20143;-77
2023/05/20 07:40:53;;;;;;;;;;;;;;;10.18;100.00;92471.75;4948424;28;20085;-77
2023/05/20 07:43:19;;;;;;;0.80;0.80;;;;;;;10.23;100.00;92470.13;4944831;29;19922;-77
2023/05/20 07:45:45;;;;;;;1.20;0.88;;;;;;;10.29;100.00;92472.41;4940857;28;20041;-78
2023/05/20 07:48:11;;;;;;;0.77;0.77;;;;;;;10.29;100.00;92474.22;4943300;28;20031;-78
2023/05/20 07:50:38;;;;;;;0.93;0.82;;;;;;;10.31;100.00;92474.72;4959509;28;20542;-78
2023/05/20 07:53:05;;;;;;;1.30;1.05;;;;;;;10.37;100.00;92468.34;4944608;28;20058;-78
2023/05/20 07:55:35;;;;;;;2.25;1.10;;;;;;;10.41;100.00;92466.72;4935088;29;20077;-77
2023/05/20 07:58:03;;;;;;;1.90;1.00;;;;;;;10.48;100.00;92469.00;4939612;28;20043;-78
2023/05/20 08:00:30;;;;;;;3.55;1.08;;;;;;;10.47;100.00;92457.75;4923309;29;20035;-78
2023/05/20 08:03:01;;;;;;;2.55;1.40;;;;;;;10.51;100.00;92458.72;4942621;29;20505;-78
2023/05/20 08:05:36;;;;;;;1.85;1.20;;;;;;;10.52;100.00;92465.50;4932125;29;20059;-79
2023/05/20 08:08:02;;;;;;;1.83;1.00;;;;;;;10.56;100.00;92463.09;4949353;28;20071;-78
2023/05/20 08:10:35;;;;;;;2.75;1.00;;;;;;;10.61;100.00;92463.03;4935653;29;20409;-78
2023/05/20 08:13:01;;;;;;;1.08;0.98;;;;;;;10.66;100.00;92459.53;4937371;29;20454;-78
2023/05/20 08:15:27;;;;;;;2.30;1.35;;;;;;;10.69;100.00;92453.72;4947917;28;20522;-78
2023/05/20 08:17:54;;;;;;;2.38;1.23;;;;;;;10.70;100.00;92457.91;4942086;29;20040;-78
2023/05/20 08:20:20;;;;;;;1.83;1.00;;;;;;;10.73;100.00;92454.72;4935924;29;20043;-76
2023/05/20 08:22:47;;;;;;;2.72;1.10;;;;;;;10.84;100.00;92456.09;4930854;29;20039;-77
2023/05/20 08:25:13;;;;;;;3.20;1.20;;;;;;;10.82;100.00;92453.75;4941214;28;20134;-77
2023/05/20 08:27:40;;;;;;;2.38;1.30;;;;;;;10.89;100.00;92456.00;4927454;29;20300;-77
2023/05/20 08:30:08;;;;;;;4.25;1.23;;;;;;;10.88;100.00;92457.09;4927177;29;20046;-76
2023/05/20 08:32:36;;;;;;;3.60;1.25;;;;;;;10.87;100.00;92462.59;4942734;29;20047;-76
2023/05/20 08:35:02;;;;;;;1.75;1.00;;;;;;;10.86;100.00;92453.19;4931219;29;20047;-76
2023/05/20 08:37:28;;;;;;;6.05;1.27;;;;;;;11.09;100.00;92448.88;4931784;29;20032;-76
2023/05/20 08:39:55;;;;;;;2.42;1.23;;;;;;;11.29;100.00;92458.97;4931127;29;20083;-76
2023/05/20 08:42:22;;;;;;;29.40;2.38;;;;;;;11.08;100.00;92455.16;4930953;29;20044;-76
2023/05/20 08:44:51;;;;;;;6.40;2.22;;;;;;;10.90;100.00;92454.97;4932317;29;20426;-76
2023/05/20 08:47:20;;;;;;;3.05;1.58;;;;;;;10.77;100.00;92460.94;4947406;29;20031;-76
2023/05/20 08:49:49;;;;;;;2.85;1.23;;;;;;;10.79;100.00;92458.81;4932776;29;20023;-76
2023/05/20 08:52:19;;;;;;;2.50;1.40;;;;;;;10.82;100.00;92455.59;4936020;29;20421;-76
2023/05/20 08:54:48;;;;;;;4.40;1.40;;;;;;;10.89;100.00;92458.63;4952610;28;20038;-76
2023/05/20 08:57:14;;;;;;;1.98;1.30;;;;;;;10.97;100.00;92455.34;4951676;29;20035;-76
2023/05/20 08:59:45;;;;;;;1.60;1.20;;;;;;;11.03;100.00;92458.66;4936147;29;20110;-76
2023/05/20 09:02:11;;;;;;;1.50;1.15;;;;;;;11.13;100.00;92462.94;4937750;29;20035;-76
2023/05/20 09:04:37;;;;;;;1.83;1.25;;;;;;;11.22;100.00;92459.34;4953696;28;20075;-76
2023/05/20 09:07:03;;;;;;;2.72;1.20;;;;;;;11.34;100.00;92463.34;4955321;29;20046;-76
2023/05/20 09:09:30;;;;;;;7.68;1.52;;;;;;;11.41;100.00;92467.13;4955085;28;20394;-76
2023/05/20 09:11:55;;;;;;;4.68;1.70;;;;;;;11.33;100.00;92467.03;4956140;29;20126;-76
2023/05/20 09:14:22;;;;;;;2.28;1.30;;;;;;;11.27;100.00;92461.09;4955548;28;20038;-76
2023/05/20 09:16:48;;;;;;;3.20;1.50;;;;;;;11.34;100.00;92464.13;4955093;29;20045;-76
2023/05/20 09:19:13;;;;;;;5.57;1.50;;;;;;;11.47;100.00;92467.81;4954884;29;20039;-76
2023/05/20 09:21:41;;;;;;;1.88;1.23;;;;;;;11.56;100.00;92478.41;4955153;29;20042;-76
2023/05/20 09:24:06;;;;;;;7.13;1.67;;;;;;;11.59;100.00;92475.94;4955270;28;20366;-76
2023/05/20 09:26:32;;;;;;;3.72;1.70;;;;;;;11.53;100.00;92476.34;4953076;29;20065;-76
2023/05/20 09:28:58;;;;;;;3.30;1.83;;;;;;;11.56;100.00;92481.78;4955810;29;20569;-76
2023/05/20 09:31:29;;;;;;;3.00;1.60;;;;;;;11.48;100.00;92494.78;4938161;29;20039;-76
2023/05/20 09:33:56;;;;;;;2.30;1.50;;;;;;;11.34;100.00;92492.94;4955853;28;20035;-76
2023/05/20 09:36:23;;;;;;;2.88;1.45;;;;;;;11.39;100.00;92497.31;4954408;29;20050;-76
2023/05/20 09:38:56;;;;;;;2.38;1.50;;;;;;;11.47;100.00;92494.03;4951869;29;20047;-76
2023/05/20 09:41:26;;;;;;;2.95;1.60;;;;;;;11.61;100.00;92486.16;4954057;28;20031;-77
2023/05/20 09:43:52;;;;;;;2.65;1.52;;;;;;;11.75;100.00;92486.91;4951469;28;20389;-76
2023/05/20 09:46:19;;;;;;;2.28;1.23;;;;;;;11.93;100.00;92485.28;4948210;28;20027;-77
2023/05/20 09:48:45;;;;;;;2.42;1.50;;;;;;;12.10;100.00;92484.69;4947269;28;20039;-78
2023/05/20 09:51:12;;;;;;;2.78;1.50;;;;;;;12.24;100.00;92485.41;4917345;28;20036;-77
2023/05/20 09:53:38;;;;;;;3.38;1.67;;;;;;;12.33;100.00;92487.34;4952251;28;20053;-77
2023/05/20 09:56:04;;;;;;;3.25;1.95;;;;;;;12.42;100.00;92488.19;4954033;28;20031;-78
2023/05/20 09:58:32;;;;;;;4.22;1.90;;;;;;;12.44;100.00;92492.06;4939009;29;20039;-78
2023/05/20 10:00:58;;;;;;;1239.80;31.15;;;;;;;12.27;100.00;92495.34;4956354;29;20043;-77
2023/05/20 10:03:26;;;;;;;331.48;8.20;;;;;;;11.90;100.00;92506.09;4923859;29;20035;-77
2023/05/20 10:06:12;;;;;;;468.15;13.25;;;;;;;11.68;100.00;92510.13;4939489;29;20043;-77
2023/05/20 10:09:10;;;;;;;657.63;18.50;;;;;;;11.45;100.00;92515.28;4924206;29;20098;-77
2023/05/20 10:12:23;;;;;;;877.25;25.90;;;;;;;11.23;100.00;92517.78;4936907;29;20055;-77
2023/05/20 10:15:25;;;;;;;575.70;14.57;;;;;;;11.07;100.00;92524.34;4938694;29;20039;-78
2023/05/20 10:18:00;;;;;;;6.00;2.97;;;;;;;11.08;100.00;92518.03;4941627;29;20482;-76
2023/05/20 10:20:26;;;;;;;4.25;2.50;;;;;;;11.19;100.00;92522.03;4950684;28;20436;-78
2023/05/20 10:22:58;;;;;;;4.32;2.53;;;;;;;11.34;100.00;92527.00;4942553;28;20529;-78
2023/05/20 10:25:25;;;;;;;;;;;;;;;11.31;100.00;92527.59;4956619;28;20122;-77
2023/05/20 10:28:23;;;;;;;3.03;1.58;;;;;;;11.33;100.00;92525.47;4958844;29;20009;-77
2023/05/20 10:30:50;;;;;;;2.00;1.30;;;;;;;11.33;100.00;92529.94;4943843;28;21398;-77
2023/05/20 10:33:17;;;;;;;2.15;1.40;;;;;;;11.29;100.00;92537.59;4959736;28;20034;-78
2023/05/20 10:35:49;;;;;;;2.83;1.73;;;;;;;11.36;100.00;92540.59;4953586;29;20046;-79
2023/05/20 10:38:14;;;;;;;3.38;2.03;;;;;;;11.31;100.00;92540.69;4950954;29;20035;-77
2023/05/20 10:40:40;;;;;;;5.95;2.08;;;;;;;11.40;100.00;92535.56;4942076;29;20046;-78
2023/05/20 10:43:10;;;;;;;3.50;1.50;;;;;;;11.42;100.00;92523.72;4959300;28;20059;-77
2023/05/20 10:45:58;;;;;;;3.38;1.50;;;;;;;11.62;100.00;92529.69;4942313;29;20129;-77
2023/05/20 10:48:26;;;;;;;3.40;1.30;;;;;;;11.77;100.00;92523.34;4960637;29;20106;-78
2023/05/20 10:50:57;;;;;;;3.83;1.40;;;;;;;11.95;100.00;92521.72;4960485;29;20057;-77
2023/05/20 10:53:25;;;;;;;4.45;1.27;;;;;;;12.04;100.00;92527.81;4960197;28;20059;-78
2023/05/20 10:55:53;;;;;;;1.80;1.27;;;;;;;12.13;100.00;92523.44;4942578;29;20039;-78
2023/05/20 10:58:22;;;;;;;1.95;1.20;;;;;;;12.22;100.00;92515.66;4959840;29;20046;-78
2023/05/20 11:00:48;;;;;;;4.55;1.35;;;;;;;12.25;100.00;92507.97;4941202;29;20023;-78
2023/05/20 11:03:17;;;;;;;1.88;1.15;;;;;;;12.26;100.00;92508.75;4957309;28;20066;-77
2023/05/20 11:05:45;;;;;;;4.72;1.20;;;;;;;12.24;100.00;92506.41;4925369;29;20039;-77
2023/05/20 11:08:11;;;;;;;1.52;1.20;;;;;;;12.24;100.00;92508.25;4958092;29;20043;-78
2023/05/20 11:10:36;;;;;;;595.90;21.85;;;;;;;12.11;100.00;92511.69;4940717;29;20034;-77
2023/05/20 11:13:03;;;;;;;274.45;7.63;;;;;;;11.99;100.00;92510.34;4941178;28;20047;-77
2023/05/20 11:15:33;;;;;;;6.35;2.22;;;;;;;11.79;100.00;92502.84;4957855;29;20039;-77
2023/05/20 11:18:02;;;;;;;3.90;2.13;;;;;;;11.70;100.00;92502.75;4957558;29;20050;-77
2023/05/20 11:20:28;;;;;;;3.15;1.98;;;;;;;11.68;100.00;92499.66;4957572;29;20358;-78
2023/05/20 11:22:55;;;;;;;87.18;3.97;;;;;;;11.64;100.00;92501.28;4957855;28;20043;-78
2023/05/20 11:25:22;;;;;;;618.92;19.40;;;;;;;11.49;100.00;92499.00;4960076;29;20033;-78
2023/05/20 11:27:49;;;;;;;857.58;23.75;;;;;;;11.42;100.00;92499.38;4946039;29;20042;-77
2023/05/20 11:30:15;;;;;;;187.25;5.72;;;;;;;11.40;100.00;92493.63;4958347;29;20035;-78